Flight Track Log - Related Links

Times and Time Zones

All times are in EDT time to prevent confusion due to time zone crossing. See the N521LL flight status page for this flight to view local times or setup timezone preferences in your user account.

Time Position Orientation Groundspeed Altitude Reporting Facility
EDT Latitude Longitude Course Direction KTS MPH feet Rate Location/Type
Sun 09:56:13 AM 33.6361 -101.8317 182° South 210 242 4,300  Level Fort Worth Center
Sun 09:56:43 AM 33.6089 -101.8328 182° South 183 211 5,500 2,242 Climbing Fort Worth Center
Sun 09:57:44 AM 33.5517 -101.8000 154° Southeast 253 291 7,700 2,530 Climbing Fort Worth Center
Sun 09:58:06 AM 33.5272 -101.7839 151° Southeast 245 282 9,000 3,000 Climbing Fort Worth Center
Sun 09:58:38 AM 33.4925 -101.7622 153° Southeast 266 306 10,400 2,600 Climbing Fort Worth Center
Sun 09:59:06 AM 33.4744 -101.7464 144° Southeast 283 326 11,600 2,591 Climbing Fort Worth Center
Sun 10:00:06 AM 33.4097 -101.6858 142° Southeast 277 319 14,200 2,450 Climbing Fort Worth Center
Sun 10:01:06 AM 33.3486 -101.6383 147° Southeast 284 327 16,500 2,350 Climbing Fort Worth Center
Sun 10:02:06 AM 33.2694 -101.5722 145° Southeast 301 346 18,900 2,050 Climbing Fort Worth Center
Sun 10:03:06 AM 33.1981 -101.5194 148° Southeast 326 375 20,600 2,000 Climbing Fort Worth Center
Sun 10:04:06 AM 33.1128 -101.4486 145° Southeast 343 395 22,900 1,950 Climbing Fort Worth Center
Sun 10:05:06 AM 33.0394 -101.3931 148° Southeast 343 395 24,500 1,350 Climbing Fort Worth Center
Sun 10:06:06 AM 32.9478 -101.3222 147° Southeast 349 402 25,600 1,200 Climbing Fort Worth Center
Sun 10:07:06 AM 32.8622 -101.2567 147° Southeast 354 407 26,900 1,200 Climbing Fort Worth Center
Sun 10:08:06 AM 32.7806 -101.1914 146° Southeast 354 407 28,000 1,100 Climbing Fort Worth Center
Sun 10:09:06 AM 32.6928 -101.1233 147° Southeast 359 413 29,100 1,200 Climbing Fort Worth Center
Sun 10:10:06 AM 32.6072 -101.0558 146° Southeast 364 419 30,400 1,150 Climbing Fort Worth Center
Sun 10:11:06 AM 32.5194 -100.9858 146° Southeast 369 425 31,400 1,350 Climbing Fort Worth Center
Sun 10:12:06 AM 32.4294 -100.9206 149° Southeast 375 432 33,100 1,450 Climbing Fort Worth Center
Sun 10:13:06 AM 32.3436 -100.8486 145° Southeast 380 437 34,300 1,100 Climbing Fort Worth Center
Sun 10:14:06 AM 32.2617 -100.7914 149° Southeast 385 443 35,300 1,200 Climbing Fort Worth Center
Sun 10:15:06 AM 32.1781 -100.7219 145° Southeast 385 443 36,700 1,050 Climbing Fort Worth Center
Sun 10:16:06 AM 32.0900 -100.6575 148° Southeast 380 437 37,400 850 Climbing Fort Worth Center
Sun 10:17:06 AM 32.0019 -100.5883 146° Southeast 380 437 38,400 800 Climbing Fort Worth Center
Sun 10:18:06 AM 31.9139 -100.5217 147° Southeast 380 437 39,000 300 Climbing Fort Worth Center
Sun 10:19:06 AM 31.8258 -100.4525 146° Southeast 380 437 39,000  Level Fort Worth Center
Sun 10:21:30 AM 31.6000 -100.2789 147° Southeast 418 481 39,000  Level Houston Center
Sun 10:22:32 AM 31.5003 -100.2014 146° Southeast 427 491 39,000  Level Houston Center
Sun 10:23:33 AM 31.3983 -100.1269 148° Southeast 430 495 39,000  Level Houston Center
Sun 10:24:35 AM 31.2758 -100.0331 147° Southeast 437 503 39,000  Level Houston Center
Sun 10:25:36 AM 31.1747 -99.9572 147° Southeast 434 499 39,000  Level Houston Center
Sun 10:26:38 AM 31.0719 -99.8803 147° Southeast 436 502 39,000  Level Houston Center
Sun 10:27:39 AM 30.9697 -99.8022 147° Southeast 438 504 39,000  Level Houston Center
Sun 10:28:41 AM 30.8667 -99.7269 148° Southeast 436 502 39,000  Level Houston Center
Sun 10:29:42 AM 30.7639 -99.6492 147° Southeast 439 505 39,000  Level Houston Center
Sun 10:30:44 AM 30.6608 -99.5733 148° Southeast 438 504 39,000  Level Houston Center
Sun 10:31:46 AM 30.5586 -99.4964 147° Southeast 438 504 39,000  Level Houston Center
Sun 10:32:47 AM 30.4544 -99.4214 148° Southeast 438 504 39,000  Level Houston Center
Sun 10:33:49 AM 30.3325 -99.3294 147° Southeast 435 501 39,000  Level Houston Center
Sun 10:34:50 AM 30.2292 -99.2539 148° Southeast 438 504 39,000  Level Houston Center
Sun 10:35:52 AM 30.1272 -99.1794 148° Southeast 433 498 39,000  Level Houston Center
Sun 10:36:53 AM 30.0244 -99.1042 148° Southeast 435 501 39,000  Level Houston Center
Sun 10:37:55 AM 29.9139 -99.0244 148° Southeast 435 501 39,000  Level Houston Center
Sun 10:38:56 AM 29.8042 -98.9439 147° Southeast 435 501 39,000  Level Houston Center
Sun 10:39:58 AM 29.7006 -98.8703 148° Southeast 438 504 39,000  Level Houston Center
Sun 10:40:59 AM 29.5986 -98.7947 147° Southeast 437 503 39,000  Level Houston Center
Sun 10:42:01 AM 29.4869 -98.7164 149° Southeast 438 504 39,000 -677 Level Houston Center
Sun 10:43:03 AM 29.3836 -98.6411 148° Southeast 442 509 37,600 -1,805 Descending Houston Center
Sun 10:44:04 AM 29.2725 -98.5597 147° Southeast 442 509 35,300 -2,244 Descending Houston Center
Sun 10:45:06 AM 29.1767 -98.4925 149° Southeast 411 473 33,000 -2,293 Descending Houston Center
Sun 10:46:07 AM 29.0886 -98.4283 148° Southeast 380 437 30,600 -2,439 Descending Houston Center
Sun 10:47:09 AM 28.9928 -98.3625 149° Southeast 374 430 28,000 -2,419 Descending Houston Center
Sun 10:48:11 AM 28.9050 -98.2969 147° Southeast 377 434 25,600 -2,293 Descending Houston Center
Sun 10:49:12 AM 28.8133 -98.2333 149° Southeast 385 443 23,300 -2,293 Descending Houston Center
Sun 10:50:14 AM 28.7214 -98.1658 147° Southeast 392 451 20,900 -2,226 Descending Houston Center
Sun 10:51:16 AM 28.6339 -98.1033 148° Southeast 395 455 18,700 -2,195 Descending Houston Center
Sun 10:52:17 AM 28.5528 -98.0436 147° Southeast 361 415 16,400 -2,564 Descending Houston Center
Sun 10:53:06 AM 28.4758 -97.9914 149° Southeast 334 384 14,000 -2,477 Descending Houston Center
Sun 10:54:06 AM 28.4028 -97.9369 147° Southeast 321 369 11,900 -882 Descending Houston Center
Sun 10:55:22 AM 28.3144 -97.8747 148° Southeast 301 346 12,000 -446 Climbing Houston Center
Sun 10:56:07 AM 28.2528 -97.8311 148° Southeast 309 356 11,000 -1,161 Descending Houston Center
Sun 10:56:24 AM 28.2431 -97.8242 148° Southeast 302 348 10,800 -1,636 Descending Houston Center
Sun 10:57:02 AM 28.1931 -97.7819 143° Southeast 306 352 9,500 -1,869 Descending Houston Center
Sun 10:57:25 AM 28.1747 -97.7575 130° Southeast 300 345 8,900 -2,066 Descending Houston Center
Sun 10:58:03 AM 28.1394 -97.7133 132° Southeast 295 339 7,400 -2,032 Descending Houston Center
Sun 10:58:27 AM 28.1167 -97.7064 165° South 299 344 6,800 -2,093 Descending Houston Center
Sun 10:59:29 AM 28.0447 -97.6825 164° South 271 312 4,400 -2,722 Descending Houston Center
Sun 11:00:04 AM 27.9914 -97.6669 166° South 246 283 2,400 -1,082 Descending Houston Center
Sun 11:00:30 AM 27.9619 -97.6536 158° South 267 307 3,300 -556 Climbing Houston Center
Sun 11:00:58 AM 27.9394 -97.6528 178° South 200 230 1,900 -944 Descending Houston Center
Sun 11:01:59 AM 27.8983 -97.6442 170° South 144 166 1,900  Level Houston Center
Sun 11:03:00 AM 27.8678 -97.6128 138° Southeast 133 153 1,900 -50 Level Houston Center
Sun 11:04:00 AM 27.8436 -97.5853 135° Southeast 128 147 1,800 -347 Descending Houston Center
Sun 11:05:01 AM 27.8203 -97.5625 139° Southeast 102 117 1,200 -595 Descending Houston Center
Sun 11:06:01 AM 27.7986 -97.5369 134° Southeast 108 124 600 -600 Descending Houston Center
Sun 11:08:00 AM 27.7667 -97.5000 204° Southwest  Level FlightAware Approximate

Login

Don't have an account? Register now (free) for customized features, flight alerts, and more!